Time;durP1;ratioP1;P1;durP2;ratioP2;P2;SDS_P1;SDS_P2;PMS_P1;PMS_P2;Temp;Humidity;BMP_temperature;BMP_pressure;BME280_temperature;BME280_humidity;BME280_pressure;Samples;Min_cycle;Max_cycle;Signal;HPM_P1;HPM_P2
2021/07/03 00:01:35;;;;;;;5.28;2.50;;;18.90;69.10;;;;;;5092010;28;20048;-55
2021/07/03 00:04:02;;;;;;;2.50;1.80;;;19.00;68.80;;;;;;5091668;28;20032;-57
2021/07/03 00:06:30;;;;;;;2.58;1.67;;;19.10;69.30;;;;;;5091628;28;20066;-55
2021/07/03 00:08:57;;;;;;;3.80;2.38;;;19.20;68.40;;;;;;5091041;28;20028;-53
2021/07/03 00:11:24;;;;;;;3.95;2.05;;;19.30;67.70;;;;;;5091788;28;20032;-53
2021/07/03 00:13:52;;;;;;;3.63;1.65;;;19.50;67.20;;;;;;5091325;28;20197;-54
2021/07/03 00:16:19;;;;;;;6.47;2.40;;;19.60;67.00;;;;;;5099598;28;20035;-55
2021/07/03 00:18:47;;;;;;;2.25;1.80;;;19.70;66.30;;;;;;5112135;28;20107;-51
2021/07/03 00:21:14;;;;;;;7.72;2.08;;;19.90;67.10;;;;;;5112118;28;20091;-47
2021/07/03 00:23:41;;;;;;;3.33;2.17;;;19.90;65.90;;;;;;5111891;27;20128;-50
2021/07/03 00:26:09;;;;;;;2.25;1.70;;;20.00;65.90;;;;;;5111878;28;20181;-52
2021/07/03 00:28:36;;;;;;;2.50;1.58;;;20.10;65.90;;;;;;5111945;28;20036;-53
2021/07/03 00:31:04;;;;;;;1.98;1.58;;;20.00;66.50;;;;;;5111487;27;20038;-49
2021/07/03 00:33:31;;;;;;;2.45;1.50;;;20.00;66.70;;;;;;5111891;28;20123;-52
2021/07/03 00:35:59;;;;;;;2.28;1.60;;;20.10;66.50;;;;;;5111574;28;20088;-52
2021/07/03 00:38:26;;;;;;;2.75;1.58;;;20.30;65.80;;;;;;5111235;28;20382;-51
2021/07/03 00:40:54;;;;;;;1.90;1.73;;;20.40;64.80;;;;;;5111607;28;20118;-51
2021/07/03 00:43:21;;;;;;;2.40;1.42;;;20.60;64.80;;;;;;5111173;28;20039;-52
2021/07/03 00:45:49;;;;;;;1.80;1.30;;;20.70;64.60;;;;;;5111219;28;20488;-50
2021/07/03 00:48:16;;;;;;;1.48;1.10;;;20.70;64.70;;;;;;5111494;28;20503;-52
2021/07/03 00:50:43;;;;;;;3.40;2.08;;;20.50;65.40;;;;;;5111024;28;20030;-56
2021/07/03 00:53:11;;;;;;;2.53;1.52;;;20.80;64.70;;;;;;5110871;28;20370;-54
2021/07/03 00:55:38;;;;;;;2.88;1.65;;;20.80;64.60;;;;;;5109064;28;20027;-55
2021/07/03 00:58:06;;;;;;;2.63;1.48;;;20.90;64.20;;;;;;5110901;28;20386;-51
2021/07/03 01:00:33;;;;;;;2.08;1.60;;;21.00;63.10;;;;;;5110914;28;20028;-48
2021/07/03 01:03:00;;;;;;;7.05;1.73;;;21.10;63.70;;;;;;5108888;28;20375;-49
2021/07/03 01:05:28;;;;;;;2.10;1.50;;;21.10;61.20;;;;;;5110548;27;20069;-47
2021/07/03 01:07:55;;;;;;;1.85;1.40;;;21.00;63.60;;;;;;5110558;28;20031;-50
2021/07/03 01:10:29;;;;;;;1.83;1.55;;;21.20;63.70;;;;;;5110113;28;20057;-45
2021/07/03 01:12:57;;;;;;;3.50;1.55;;;21.30;63.60;;;;;;5110193;28;20035;-49
2021/07/03 01:15:25;;;;;;;1.92;1.40;;;21.30;63.50;;;;;;5110559;28;20114;-47
2021/07/03 01:17:53;;;;;;;2.50;1.58;;;21.40;62.90;;;;;;5110073;28;20046;-52
2021/07/03 01:20:21;;;;;;;1.77;1.20;;;21.40;62.80;;;;;;5110010;28;20028;-49
2021/07/03 01:22:49;;;;;;;3.92;1.75;;;21.50;63.30;;;;;;5110255;28;20040;-54
2021/07/03 01:25:17;;;;;;;4.00;1.80;;;21.50;62.20;;;;;;5109081;27;20031;-53
2021/07/03 01:27:56;;;;;;;2.35;1.50;;;21.50;63.20;;;;;;5101772;28;20232;-53
2021/07/03 01:30:34;;;;;;;2.97;1.42;;;21.70;61.80;;;;;;5069069;28;20147;-56
2021/07/03 01:33:01;;;;;;;2.83;1.42;;;21.80;62.90;;;;;;5067888;28;20063;-51
2021/07/03 01:35:31;;;;;;;2.47;1.60;;;21.80;62.10;;;;;;5069379;28;20043;-49
2021/07/03 01:37:59;;;;;;;4.35;1.50;;;21.80;62.60;;;;;;5069206;28;20032;-50
2021/07/03 01:40:26;;;;;;;3.53;1.55;;;21.70;63.40;;;;;;5069503;28;20028;-51
2021/07/03 01:42:54;;;;;;;7.63;1.70;;;21.90;61.80;;;;;;5069058;28;20037;-49
2021/07/03 01:45:21;;;;;;;1.73;1.13;;;22.00;59.90;;;;;;5069559;28;20440;-52
2021/07/03 01:47:49;;;;;;;4.13;1.13;;;22.00;62.50;;;;;;5069169;28;20039;-50
2021/07/03 01:50:17;;;;;;;3.03;1.70;;;22.00;61.90;;;;;;5069129;28;20067;-53
2021/07/03 01:52:46;;;;;;;4.07;1.40;;;22.20;59.30;;;;;;5069154;28;20028;-52
2021/07/03 01:55:13;;;;;;;2.38;1.50;;;22.40;61.70;;;;;;5068946;28;20032;-46
2021/07/03 01:57:41;;;;;;;3.53;1.20;;;22.30;61.90;;;;;;5068955;28;20028;-51
2021/07/03 02:00:11;;;;;;;3.22;1.27;;;22.40;61.50;;;;;;5068915;28;20619;-57
2021/07/03 02:02:39;;;;;;;6.45;1.60;;;22.40;60.80;;;;;;5069189;28;20048;-49
2021/07/03 02:05:06;;;;;;;4.72;1.40;;;22.50;60.20;;;;;;5068782;28;20046;-48
2021/07/03 02:07:34;;;;;;;1.75;1.17;;;22.50;61.50;;;;;;5068903;28;20086;-50
2021/07/03 02:10:01;;;;;;;2.05;1.38;;;22.40;60.50;;;;;;5068703;28;20105;-46
2021/07/03 02:12:28;;;;;;;2.92;1.52;;;22.60;59.40;;;;;;5068955;28;20021;-51
2021/07/03 02:14:56;;;;;;;3.17;1.40;;;22.50;61.80;;;;;;5068530;28;20109;-44
2021/07/03 02:17:23;;;;;;;1.77;1.17;;;22.50;60.50;;;;;;5068831;28;20112;-52
2021/07/03 02:19:50;;;;;;;2.72;1.10;;;22.80;60.30;;;;;;5068515;28;20584;-51
2021/07/03 02:22:18;;;;;;;2.72;1.45;;;22.90;58.90;;;;;;5069058;28;20119;-48
2021/07/03 02:24:45;;;;;;;1.67;1.10;;;23.00;59.50;;;;;;5068860;28;20028;-49
2021/07/03 02:27:12;;;;;;;4.95;1.38;;;23.00;59.90;;;;;;5068583;28;20079;-49
2021/07/03 02:29:40;;;;;;;6.32;1.83;;;23.00;59.50;;;;;;5069005;28;20040;-49
2021/07/03 02:32:07;;;;;;;2.25;1.20;;;23.00;59.50;;;;;;5068919;28;20078;-54
2021/07/03 02:34:35;;;;;;;7.45;2.05;;;22.70;61.10;;;;;;5068953;28;20032;-50
2021/07/03 02:37:03;;;;;;;1.00;0.90;;;22.90;57.80;;;;;;5069169;28;20029;-47
2021/07/03 02:39:31;;;;;;;4.00;1.40;;;23.10;60.10;;;;;;5072789;28;20036;-49
2021/07/03 02:41:58;;;;;;;2.58;1.30;;;22.90;61.10;;;;;;5072810;28;20036;-55
2021/07/03 02:44:26;;;;;;;2.53;1.02;;;23.20;59.20;;;;;;5072910;28;20578;-46
2021/07/03 02:46:53;;;;;;;1.38;0.95;;;23.30;59.70;;;;;;5071938;28;20117;-52
2021/07/03 02:49:22;;;;;;;1.92;1.17;;;23.40;58.20;;;;;;5072062;28;20029;-53
2021/07/03 02:51:50;;;;;;;1.73;0.80;;;23.20;60.10;;;;;;5072766;28;20056;-53
2021/07/03 02:54:17;;;;;;;1.20;0.90;;;23.20;60.30;;;;;;5072564;28;20089;-52
2021/07/03 02:56:44;;;;;;;1.80;0.93;;;23.30;59.90;;;;;;5071962;28;20109;-55
2021/07/03 02:59:12;;;;;;;1.70;0.90;;;23.40;59.50;;;;;;5070197;28;20430;-53
2021/07/03 03:01:39;;;;;;;1.55;0.80;;;23.20;60.60;;;;;;5072169;28;20039;-53
2021/07/03 03:04:06;;;;;;;3.75;1.30;;;23.40;58.70;;;;;;5072302;28;20033;-53
2021/07/03 03:06:34;;;;;;;1.45;1.00;;;23.40;59.90;;;;;;5072351;28;20475;-50
2021/07/03 03:09:01;;;;;;;2.63;1.65;;;23.30;60.10;;;;;;5070835;28;20040;-49
2021/07/03 03:11:28;;;;;;;5.18;2.50;;;23.50;59.70;;;;;;5071929;28;20511;-51
2021/07/03 03:13:56;;;;;;;5.22;3.33;;;23.50;59.70;;;;;;5072229;28;20028;-51
2021/07/03 03:16:25;;;;;;;7.70;2.83;;;23.40;58.50;;;;;;5072558;28;20028;-56
2021/07/03 03:18:53;;;;;;;7.43;4.43;;;23.60;56.30;;;;;;5070162;28;20029;-52
2021/07/03 03:21:20;;;;;;;31.27;14.82;;;23.60;59.20;;;;;;5071821;28;20498;-52
2021/07/03 03:23:48;;;;;;;50.05;24.23;;;23.60;56.70;;;;;;5072247;28;20056;-53
2021/07/03 03:26:18;;;;;;;84.60;41.00;;;23.80;58.40;;;;;;5084991;28;20039;-58
2021/07/03 03:28:46;;;;;;;128.10;63.65;;;23.80;57.80;;;;;;5089546;28;20048;-52
2021/07/03 03:31:13;;;;;;;144.00;69.85;;;23.70;59.00;;;;;;5091002;28;20030;-49
2021/07/03 03:33:40;;;;;;;125.43;60.20;;;23.50;59.70;;;;;;5087423;28;20047;-53
2021/07/03 03:36:08;;;;;;;107.63;49.47;;;23.50;58.20;;;;;;5087642;28;20468;-53
2021/07/03 03:38:35;;;;;;;87.55;44.00;;;23.60;57.90;;;;;;5087692;28;20028;-54
2021/07/03 03:41:02;;;;;;;112.53;57.38;;;23.50;57.70;;;;;;5089138;28;20052;-54
2021/07/03 03:43:30;;;;;;;116.53;55.40;;;23.50;59.50;;;;;;5085851;28;20036;-53
2021/07/03 03:45:57;;;;;;;102.43;49.35;;;23.40;59.80;;;;;;5089250;28;20024;-52
2021/07/03 03:48:24;;;;;;;91.88;43.17;;;23.40;59.40;;;;;;5088006;28;20074;-51
2021/07/03 03:50:52;;;;;;;98.63;51.38;;;23.50;59.00;;;;;;5088313;28;20063;-50
2021/07/03 03:53:19;;;;;;;90.03;47.65;;;23.40;59.60;;;;;;5082609;28;20451;-51
2021/07/03 03:55:47;;;;;;;86.63;42.88;;;23.50;58.50;;;;;;5089116;28;20059;-50
2021/07/03 03:58:14;;;;;;;99.85;51.55;;;23.60;58.10;;;;;;5088601;28;20493;-54
2021/07/03 04:00:42;;;;;;;92.78;45.33;;;23.60;59.70;;;;;;5088552;28;20024;-58
2021/07/03 04:03:09;;;;;;;81.70;43.88;;;23.60;59.10;;;;;;5085354;28;20093;-51
2021/07/03 04:05:36;;;;;;;89.53;46.60;;;23.70;58.20;;;;;;5089224;28;20095;-56
2021/07/03 04:08:05;;;;;;;88.15;46.83;;;23.40;59.10;;;;;;5090941;28;20035;-56
2021/07/03 04:10:32;;;;;;;92.15;45.97;;;23.20;60.20;;;;;;5090125;28;20035;-58
2021/07/03 04:12:59;;;;;;;83.60;41.88;;;23.00;61.20;;;;;;5091259;28;20039;-59
2021/07/03 04:15:27;;;;;;;76.40;41.95;;;23.10;60.70;;;;;;5090265;28;20060;-57
2021/07/03 04:17:54;;;;;;;62.92;30.52;;;23.00;61.10;;;;;;5091344;28;20032;-61
2021/07/03 04:20:21;;;;;;;64.93;33.50;;;23.20;60.00;;;;;;5090185;28;20039;-58
2021/07/03 04:22:49;;;;;;;65.90;31.90;;;23.30;59.70;;;;;;5090968;28;20084;-54
2021/07/03 04:25:20;;;;;;;73.47;39.63;;;23.30;58.50;;;;;;5091480;28;20082;-55
2021/07/03 04:27:48;;;;;;;62.35;32.22;;;23.20;58.00;;;;;;5092011;28;20074;-60
2021/07/03 04:30:20;;;;;;;71.60;38.55;;;23.20;59.10;;;;;;5091268;28;20035;-56
2021/07/03 04:32:48;;;;;;;73.05;37.80;;;23.20;60.30;;;;;;5090696;28;20036;-54
2021/07/03 04:35:17;;;;;;;68.60;37.17;;;23.20;60.50;;;;;;5090854;28;20028;-59
2021/07/03 04:37:47;;;;;;;72.15;38.15;;;23.10;60.80;;;;;;5091130;28;20113;-55
2021/07/03 04:40:14;;;;;;;62.42;31.98;;;23.20;60.90;;;;;;5091239;28;20069;-59
2021/07/03 04:42:42;;;;;;;47.88;26.75;;;23.10;60.40;;;;;;5090755;28;20036;-59
2021/07/03 04:45:10;;;;;;;62.83;35.22;;;23.10;58.60;;;;;;5090794;28;20091;-59
2021/07/03 04:47:38;;;;;;;63.17;34.25;;;22.90;61.30;;;;;;5090487;28;20029;-57
2021/07/03 04:50:07;;;;;;;58.85;31.73;;;22.80;61.70;;;;;;5089612;28;20032;-59
2021/07/03 04:52:36;;;;;;;56.20;32.63;;;22.80;60.80;;;;;;5091398;28;20508;-55
2021/07/03 04:55:05;;;;;;;61.60;34.67;;;22.80;62.30;;;;;;5091734;28;20043;-61
2021/07/03 04:57:32;;;;;;;44.50;22.08;;;22.70;62.50;;;;;;5090499;28;20027;-57
2021/07/03 05:00:00;;;;;;;47.63;27.98;;;22.80;60.10;;;;;;5090026;28;20032;-58
2021/07/03 05:02:27;;;;;;;54.10;31.55;;;22.80;60.70;;;;;;5090502;28;20115;-57
2021/07/03 05:04:55;;;;;;;51.72;28.65;;;22.60;61.60;;;;;;5090442;28;20032;-57
2021/07/03 05:07:22;;;;;;;61.35;32.30;;;22.30;61.30;;;;;;5090622;28;20055;-55
2021/07/03 05:09:49;;;;;;;55.70;30.33;;;21.90;63.00;;;;;;5090539;28;20187;-59
2021/07/03 05:12:17;;;;;;;50.13;27.45;;;21.60;63.90;;;;;;5090500;28;20023;-56
2021/07/03 05:14:44;;;;;;;58.92;30.40;;;21.30;64.80;;;;;;5090671;28;20028;-56
2021/07/03 05:17:11;;;;;;;50.22;26.58;;;21.10;66.10;;;;;;5078143;28;20379;-56
2021/07/03 05:19:39;;;;;;;56.38;30.40;;;20.80;66.00;;;;;;5087965;28;20448;-54
2021/07/03 05:22:06;;;;;;;39.95;23.15;;;20.60;68.00;;;;;;5088211;28;20032;-54
2021/07/03 05:24:33;;;;;;;44.47;24.45;;;20.40;66.40;;;;;;5086891;28;20039;-59
2021/07/03 05:27:01;;;;;;;45.92;24.80;;;20.30;66.10;;;;;;5086876;28;20089;-48
2021/07/03 05:29:28;;;;;;;49.95;27.20;;;20.20;68.40;;;;;;5086939;28;20031;-57
2021/07/03 05:31:55;;;;;;;41.38;24.55;;;20.10;68.40;;;;;;5084549;28;20473;-58
2021/07/03 05:34:23;;;;;;;41.92;22.33;;;20.00;68.20;;;;;;5087635;28;20070;-51
2021/07/03 05:36:50;;;;;;;47.60;27.83;;;19.90;68.90;;;;;;5086691;28;20027;-53
2021/07/03 05:39:17;;;;;;;38.92;22.95;;;19.80;71.20;;;;;;5087171;28;20667;-53
2021/07/03 05:41:46;;;;;;;34.25;19.77;;;19.70;70.20;;;;;;5083990;28;20201;-53
2021/07/03 05:44:13;;;;;;;42.72;21.55;;;19.60;69.80;;;;;;5079697;28;20021;-57
2021/07/03 05:46:42;;;;;;;41.13;20.80;;;19.50;70.50;;;;;;5081058;28;20032;-54
2021/07/03 05:49:09;;;;;;;32.45;20.05;;;19.50;70.70;;;;;;5080730;28;20527;-48
2021/07/03 05:51:37;;;;;;;45.45;26.55;;;19.40;71.30;;;;;;5087428;28;20032;-55
2021/07/03 05:54:05;;;;;;;53.25;30.90;;;19.30;73.80;;;;;;5088099;28;20028;-57
2021/07/03 05:56:33;;;;;;;40.40;23.17;;;19.20;75.60;;;;;;5084072;28;20028;-49
2021/07/03 05:59:03;;;;;;;53.92;31.15;;;19.10;74.50;;;;;;5086373;28;20039;-51
2021/07/03 06:01:34;;;;;;;53.72;32.35;;;19.00;76.90;;;;;;5087494;28;20028;-59
2021/07/03 06:04:01;;;;;;;44.85;29.30;;;18.90;77.10;;;;;;5088646;28;20084;-52
2021/07/03 06:06:29;;;;;;;51.63;32.10;;;18.80;77.80;;;;;;5084066;28;20112;-51
2021/07/03 06:08:56;;;;;;;57.03;31.52;;;18.70;78.80;;;;;;5088336;28;20024;-57
2021/07/03 06:11:23;;;;;;;44.33;27.85;;;18.70;78.90;;;;;;5087285;28;20039;-49
2021/07/03 06:13:53;;;;;;;42.47;27.25;;;18.70;77.80;;;;;;5087764;28;20485;-55
2021/07/03 06:16:21;;;;;;;49.40;31.95;;;18.70;78.60;;;;;;5084116;28;20024;-55
2021/07/03 06:18:49;;;;;;;49.58;29.90;;;18.60;79.60;;;;;;5086128;28;20115;-55
2021/07/03 06:21:16;;;;;;;47.17;28.35;;;18.60;79.60;;;;;;5086311;28;20039;-52
2021/07/03 06:23:43;;;;;;;37.55;21.50;;;18.60;79.50;;;;;;5087900;28;20085;-49
2021/07/03 06:26:12;;;;;;;35.85;20.67;;;18.60;77.40;;;;;;5084757;28;20032;-55
2021/07/03 06:28:39;;;;;;;36.58;22.38;;;18.60;78.00;;;;;;5083846;28;20088;-52
2021/07/03 06:31:07;;;;;;;36.65;23.95;;;18.60;78.10;;;;;;5085908;28;20032;-51
2021/07/03 06:33:34;;;;;;;44.90;25.50;;;18.50;80.00;;;;;;5087494;28;20094;-56
2021/07/03 06:36:02;;;;;;;48.00;29.30;;;18.50;79.60;;;;;;5087796;28;20043;-52
2021/07/03 06:38:29;;;;;;;41.65;28.00;;;18.40;81.10;;;;;;5081449;28;20081;-57
2021/07/03 06:41:01;;;;;;;44.33;27.55;;;18.30;81.00;;;;;;5087063;28;20046;-60
2021/07/03 06:43:30;;;;;;;46.17;27.45;;;18.30;81.50;;;;;;5087021;28;20043;-53
2021/07/03 06:45:57;;;;;;;43.72;26.40;;;18.30;81.80;;;;;;5087394;28;20439;-55
2021/07/03 06:48:24;;;;;;;47.05;27.02;;;18.30;81.90;;;;;;5081464;28;20016;-56
2021/07/03 06:50:52;;;;;;;35.90;20.33;;;18.20;82.30;;;;;;5086724;28;20478;-56
2021/07/03 06:53:20;;;;;;;35.47;22.23;;;18.20;80.30;;;;;;5087095;28;20036;-56
2021/07/03 06:55:47;;;;;;;36.40;23.55;;;18.20;81.40;;;;;;5086923;28;20066;-55
2021/07/03 06:58:15;;;;;;;26.02;16.00;;;18.20;81.80;;;;;;5081653;28;20122;-59
2021/07/03 07:00:42;;;;;;;33.05;21.40;;;18.20;79.20;;;;;;5087364;28;20028;-52
2021/07/03 07:03:09;;;;;;;32.38;22.08;;;18.20;81.20;;;;;;5087084;28;20036;-52
2021/07/03 07:05:38;;;;;;;26.77;14.60;;;18.20;81.30;;;;;;5085830;28;20028;-51
2021/07/03 07:08:06;;;;;;;29.48;18.45;;;18.10;80.70;;;;;;5080900;28;20115;-52
2021/07/03 07:10:33;;;;;;;31.15;16.77;;;18.10;80.60;;;;;;5086801;28;20076;-55
2021/07/03 07:13:06;;;;;;;26.80;16.33;;;18.10;80.50;;;;;;5087169;28;20371;-54
2021/07/03 07:15:34;;;;;;;26.00;17.08;;;18.10;80.20;;;;;;5087243;28;20107;-56
2021/07/03 07:18:01;;;;;;;31.50;18.75;;;18.10;81.00;;;;;;5082129;28;20522;-53
2021/07/03 07:20:29;;;;;;;29.83;20.48;;;18.10;81.00;;;;;;5086826;28;20146;-53
2021/07/03 07:22:56;;;;;;;33.95;19.48;;;18.00;81.50;;;;;;5086974;28;20040;-59
2021/07/03 07:25:24;;;;;;;27.05;15.93;;;18.00;82.00;;;;;;5090996;28;20039;-57
2021/07/03 07:27:51;;;;;;;28.48;18.23;;;18.00;81.10;;;;;;5085000;28;20104;-57
2021/07/03 07:30:19;;;;;;;29.58;18.48;;;18.00;82.30;;;;;;5090790;28;20486;-55
2021/07/03 07:32:47;;;;;;;30.42;18.73;;;18.00;81.80;;;;;;5090805;28;20080;-56
2021/07/03 07:35:15;;;;;;;28.02;16.38;;;18.00;81.90;;;;;;5090580;28;20028;-57
2021/07/03 07:37:43;;;;;;;30.65;17.85;;;18.00;81.80;;;;;;5086926;28;20074;-57
2021/07/03 07:40:12;;;;;;;30.27;18.42;;;17.90;82.20;;;;;;5090628;28;20024;-60
2021/07/03 07:42:40;;;;;;;30.15;17.40;;;17.90;82.30;;;;;;5089170;28;20044;-56
2021/07/03 07:45:08;;;;;;;26.83;17.08;;;17.90;81.80;;;;;;5090615;28;20481;-54
2021/07/03 07:47:36;;;;;;;30.77;19.33;;;17.90;81.80;;;;;;5086165;28;20133;-52
2021/07/03 07:50:06;;;;;;;30.42;17.77;;;17.80;82.20;;;;;;5090619;28;20433;-55
2021/07/03 07:52:34;;;;;;;30.10;19.75;;;17.80;83.50;;;;;;5090337;28;20780;-52
2021/07/03 07:55:02;;;;;;;31.65;19.33;;;17.70;83.10;;;;;;5090479;28;20066;-55
2021/07/03 07:57:29;;;;;;;30.02;18.90;;;17.70;84.50;;;;;;5085082;28;20032;-60
2021/07/03 07:59:57;;;;;;;30.25;17.80;;;17.70;84.10;;;;;;5090561;28;20496;-62
2021/07/03 08:02:24;;;;;;;27.63;18.15;;;17.70;83.90;;;;;;5090377;28;20111;-55
2021/07/03 08:04:51;;;;;;;27.38;17.23;;;17.70;84.50;;;;;;5090513;28;20032;-60
2021/07/03 08:07:19;;;;;;;25.42;16.77;;;17.70;84.30;;;;;;5085114;28;20485;-54
2021/07/03 08:09:46;;;;;;;27.10;17.38;;;17.60;84.40;;;;;;5088526;28;20519;-54
2021/07/03 08:12:14;;;;;;;30.05;17.63;;;17.60;84.40;;;;;;5089917;28;20505;-49
2021/07/03 08:14:41;;;;;;;23.45;14.82;;;17.70;84.60;;;;;;5090170;28;20039;-58
2021/07/03 08:17:08;;;;;;;25.30;15.98;;;17.70;84.10;;;;;;5080013;28;21304;-56
2021/07/03 08:19:38;;;;;;;26.88;16.88;;;17.60;84.90;;;;;;5090061;28;20665;-54
2021/07/03 08:22:05;;;;;;;31.40;18.15;;;17.70;84.90;;;;;;5089291;28;20028;-53
2021/07/03 08:24:33;;;;;;;32.65;20.42;;;17.70;85.00;;;;;;5089408;28;20127;-50
2021/07/03 08:27:00;;;;;;;36.10;21.35;;;17.70;85.80;;;;;;5082705;28;20040;-59
2021/07/03 08:29:27;;;;;;;34.95;20.75;;;17.70;85.20;;;;;;5090356;28;20036;-54
2021/07/03 08:31:55;;;;;;;31.13;20.20;;;17.60;85.20;;;;;;5089437;28;20020;-52
2021/07/03 08:34:23;;;;;;;35.45;21.27;;;17.70;85.10;;;;;;5089820;28;20032;-58
2021/07/03 08:36:51;;;;;;;33.78;21.48;;;17.70;85.50;;;;;;5084185;28;20051;-55
2021/07/03 08:39:18;;;;;;;34.05;21.50;;;17.70;85.80;;;;;;5089453;28;20443;-55
2021/07/03 08:41:45;;;;;;;30.55;20.10;;;17.70;85.80;;;;;;5069483;28;20467;-59
2021/07/03 08:44:16;;;;;;;31.27;20.27;;;17.70;86.10;;;;;;5089870;28;20040;-51
2021/07/03 08:46:47;;;;;;;30.00;20.38;;;17.60;85.80;;;;;;5084180;28;20107;-54
2021/07/03 08:49:16;;;;;;;32.88;20.20;;;17.70;85.90;;;;;;5087483;28;20515;-55
2021/07/03 08:51:46;;;;;;;29.83;19.52;;;17.60;85.70;;;;;;5089684;28;20032;-56
2021/07/03 08:54:14;;;;;;;31.80;18.83;;;17.60;86.00;;;;;;5088873;28;20047;-55
2021/07/03 08:56:52;;;;;;;;;;;;;;;;;;;;;
2021/07/03 08:59:24;;;;;;;29.85;19.02;;;17.60;86.20;;;;;;5089858;28;20744;-58
2021/07/03 09:01:55;;;;;;;25.75;17.50;;;17.50;86.40;;;;;;5069187;28;20027;-49
2021/07/03 09:04:42;;;;;;;29.92;16.67;;;17.50;86.80;;;;;;5088842;28;20068;-51
2021/07/03 09:07:14;;;;;;;29.95;17.02;;;17.50;86.60;;;;;;5080147;28;20031;-53
2021/07/03 09:09:42;;;;;;;29.38;17.90;;;17.50;86.60;;;;;;5086288;28;20482;-51
2021/07/03 09:12:10;;;;;;;30.85;20.42;;;17.50;86.80;;;;;;5088521;28;20502;-53
2021/07/03 09:14:41;;;;;;;31.60;19.45;;;17.50;86.80;;;;;;5088777;28;20036;-54
2021/07/03 09:17:14;;;;;;;40.28;22.90;;;17.50;86.60;;;;;;5083319;28;20084;-50
2021/07/03 09:19:51;;;;;;;65.47;33.38;;;17.40;87.10;;;;;;5087392;28;20025;-51
2021/07/03 09:22:19;;;;;;;80.60;43.88;;;17.40;87.30;;;;;;5088625;28;20584;-55
2021/07/03 09:24:46;;;;;;;106.55;55.00;;;17.40;88.40;;;;;;5088409;28;20081;-57
2021/07/03 09:27:14;;;;;;;122.68;68.53;;;17.40;88.50;;;;;;5082963;28;20437;-56
2021/07/03 09:29:51;;;;;;;128.02;73.63;;;17.40;88.30;;;;;;5089028;28;20482;-50
2021/07/03 09:32:25;;;;;;;143.73;77.00;;;17.50;88.20;;;;;;5088781;28;20036;-51
2021/07/03 09:34:53;;;;;;;157.25;84.72;;;17.50;88.10;;;;;;5086713;28;20486;-57
2021/07/03 09:37:23;;;;;;;153.50;83.60;;;17.50;88.20;;;;;;5080896;28;20483;-54
2021/07/03 09:39:50;;;;;;;175.88;91.72;;;17.50;88.20;;;;;;5086196;28;20452;-54
2021/07/03 09:42:17;;;;;;;181.45;97.47;;;17.50;88.20;;;;;;5088771;28;20046;-56
2021/07/03 09:44:45;;;;;;;171.55;92.97;;;17.50;88.50;;;;;;5088588;28;20119;-53
2021/07/03 09:47:18;;;;;;;155.02;86.75;;;17.50;88.20;;;;;;5080345;28;20055;-54
2021/07/03 09:49:45;;;;;;;162.13;86.90;;;17.50;88.30;;;;;;5084628;28;20024;-55
2021/07/03 09:52:13;;;;;;;168.23;94.88;;;17.50;88.20;;;;;;5088295;28;20086;-54
2021/07/03 09:54:40;;;;;;;164.85;95.47;;;17.50;88.10;;;;;;5086666;28;20508;-49
2021/07/03 09:57:09;;;;;;;182.07;98.07;;;17.40;88.30;;;;;;5082672;28;20032;-56
2021/07/03 09:59:37;;;;;;;189.05;98.18;;;17.50;88.30;;;;;;5087714;28;20089;-57
2021/07/03 10:02:05;;;;;;;181.60;103.85;;;17.40;88.30;;;;;;5087977;28;20061;-55
2021/07/03 10:04:33;;;;;;;187.90;105.60;;;17.50;88.00;;;;;;5087665;28;20024;-59
2021/07/03 10:07:05;;;;;;;192.85;110.80;;;17.50;88.40;;;;;;5082836;28;20032;-56
2021/07/03 10:09:44;;;;;;;190.73;113.07;;;17.50;88.10;;;;;;5087435;28;20686;-56
2021/07/03 10:12:35;;;;;;;193.15;113.75;;;17.40;88.00;;;;;;5085514;28;20040;-52
2021/07/03 10:15:02;;;;;;;198.50;113.45;;;17.40;88.30;;;;;;5087709;28;20024;-55
2021/07/03 10:17:32;;;;;;;174.40;99.47;;;17.40;88.30;;;;;;5081637;28;20028;-51
2021/07/03 10:20:07;;;;;;;205.68;115.30;;;17.40;87.00;;;;;;5086578;28;20425;-55
2021/07/03 10:22:38;;;;;;;207.25;119.97;;;17.40;88.10;;;;;;5087412;28;20082;-56
2021/07/03 10:25:16;;;;;;;218.75;121.53;;;17.30;88.10;;;;;;5084397;28;20763;-53
2021/07/03 10:28:02;;;;;;;221.27;122.43;;;17.30;87.70;;;;;;5082352;28;20052;-50
2021/07/03 10:30:34;;;;;;;203.35;118.82;;;17.30;87.90;;;;;;5088151;28;20028;-53
2021/07/03 10:33:23;;;;;;;202.88;117.03;;;17.30;87.20;;;;;;5087116;28;20020;-53
2021/07/03 10:35:56;;;;;;;197.55;122.90;;;17.30;87.80;;;;;;5086868;28;20109;-50
2021/07/03 10:38:42;;;;;;;209.27;122.70;;;17.30;88.10;;;;;;5080499;28;20344;-56
2021/07/03 10:41:23;;;;;;;200.80;119.93;;;17.20;88.40;;;;;;5088410;28;20120;-55
2021/07/03 10:44:00;;;;;;;202.55;116.47;;;17.20;88.20;;;;;;5088096;28;20028;-50
2021/07/03 10:46:32;;;;;;;198.05;116.80;;;17.20;87.80;;;;;;5084632;28;20538;-55
2021/07/03 10:49:14;;;;;;;195.25;118.55;;;17.20;88.30;;;;;;5084373;28;20043;-52
2021/07/03 10:51:42;;;;;;;;;;;17.10;88.10;;;;;;5088523;28;20029;-49
2021/07/03 10:54:27;;;;;;;200.27;116.88;;;17.10;88.20;;;;;;5087994;28;20189;-48
2021/07/03 10:57:08;;;;;;;191.45;114.90;;;17.10;88.20;;;;;;5082149;28;20074;-55
2021/07/03 10:59:38;;;;;;;195.32;115.55;;;17.10;88.00;;;;;;5091037;28;20395;-53
2021/07/03 11:02:14;;;;;;;190.57;118.10;;;17.10;87.50;;;;;;5091407;28;20032;-59
2021/07/03 11:04:55;;;;;;;186.60;112.97;;;17.10;88.40;;;;;;5091788;28;20039;-57
2021/07/03 11:07:30;;;;;;;190.10;114.30;;;17.00;88.10;;;;;;5082892;28;20077;-50
2021/07/03 11:10:11;;;;;;;191.45;114.82;;;17.00;88.10;;;;;;5089246;28;20085;-53
2021/07/03 11:12:49;;;;;;;196.10;114.78;;;17.00;88.30;;;;;;5091344;28;20554;-54
2021/07/03 11:15:23;;;;;;;;;;;17.00;88.20;;;;;;5091640;28;20036;-55
2021/07/03 11:17:52;;;;;;;193.48;113.38;;;16.90;88.20;;;;;;5081737;28;19912;-53
2021/07/03 11:20:27;;;;;;;180.20;108.95;;;16.90;87.60;;;;;;5088230;28;20038;-52
2021/07/03 11:22:56;;;;;;;185.82;111.50;;;16.90;87.90;;;;;;5089868;28;20497;-52
2021/07/03 11:25:31;;;;;;;184.90;112.40;;;16.90;88.20;;;;;;5088312;28;20039;-49
2021/07/03 11:28:17;;;;;;;169.18;105.30;;;16.90;88.30;;;;;;5084520;28;20051;-55
2021/07/03 11:30:48;;;;;;;188.27;109.32;;;16.90;88.20;;;;;;5090212;28;20402;-54
2021/07/03 11:33:16;;;;;;;184.57;107.25;;;16.90;88.20;;;;;;5091614;28;20061;-50
2021/07/03 11:35:51;;;;;;;187.60;105.47;;;16.80;88.20;;;;;;5090953;28;20327;-52
2021/07/03 11:38:37;;;;;;;167.18;105.13;;;16.80;87.90;;;;;;5044004;28;20109;-57
2021/07/03 11:41:08;;;;;;;170.98;104.90;;;16.80;88.00;;;;;;5091010;28;20063;-53
2021/07/03 11:43:36;;;;;;;170.40;103.87;;;16.80;88.20;;;;;;5093060;28;20118;-50
2021/07/03 11:46:04;;;;;;;171.50;102.75;;;16.80;87.70;;;;;;5090841;28;20020;-54
2021/07/03 11:48:32;;;;;;;166.82;102.05;;;16.70;87.90;;;;;;5086010;28;20031;-54
2021/07/03 11:51:01;;;;;;;167.80;99.57;;;16.70;88.00;;;;;;5090930;28;20052;-53
2021/07/03 11:53:33;;;;;;;160.70;98.95;;;16.70;87.80;;;;;;5090666;28;20124;-49
2021/07/03 11:56:02;;;;;;;160.93;96.60;;;16.70;88.00;;;;;;5090531;28;20069;-51
2021/07/03 11:58:35;;;;;;;162.70;98.82;;;16.70;87.90;;;;;;5085356;28;20403;-53
2021/07/03 12:01:09;;;;;;;156.00;95.97;;;16.60;87.70;;;;;;5090689;28;20032;-55
2021/07/03 12:03:38;;;;;;;154.75;96.70;;;16.60;88.10;;;;;;5090943;28;20125;-53
2021/07/03 12:06:07;;;;;;;156.98;95.30;;;16.60;88.10;;;;;;5090217;28;20056;-54
2021/07/03 12:08:43;;;;;;;156.75;93.18;;;16.60;88.00;;;;;;5084993;28;20129;-50
2021/07/03 12:11:12;;;;;;;151.70;93.47;;;16.50;88.10;;;;;;5089497;28;20435;-53
2021/07/03 12:14:00;;;;;;;155.43;91.90;;;16.50;87.90;;;;;;5090681;28;20066;-52
2021/07/03 12:16:29;;;;;;;154.13;90.35;;;16.40;88.30;;;;;;5088354;28;20031;-48
2021/07/03 12:19:00;;;;;;;148.90;91.38;;;16.40;88.10;;;;;;5086608;28;20032;-53
2021/07/03 12:21:35;;;;;;;144.93;91.22;;;16.40;89.00;;;;;;5088932;28;20051;-52
2021/07/03 12:24:08;;;;;;;142.13;82.60;;;16.30;88.30;;;;;;5089975;28;20039;-47
2021/07/03 12:26:41;;;;;;;146.50;88.25;;;16.30;88.40;;;;;;5083162;28;20042;-48
2021/07/03 12:29:11;;;;;;;135.52;86.10;;;16.20;88.80;;;;;;5086902;28;20501;-51
2021/07/03 12:31:41;;;;;;;137.23;84.90;;;16.20;88.90;;;;;;5088346;28;20262;-48
2021/07/03 12:34:09;;;;;;;131.98;83.45;;;16.20;88.90;;;;;;5089530;28;20024;-51
2021/07/03 12:36:43;;;;;;;130.73;84.00;;;16.20;88.70;;;;;;5087043;28;20089;-49
2021/07/03 12:39:19;;;;;;;141.40;83.30;;;16.10;89.00;;;;;;5086176;28;20024;-48
2021/07/03 12:42:07;;;;;;;129.68;78.82;;;16.10;89.00;;;;;;5086346;28;20036;-48